createdAt,value
2018-03-17T00:01:58.579Z,0.70
2018-03-17T00:04:27.043Z,0.83
2018-03-17T00:06:54.546Z,1.07
2018-03-17T00:09:22.036Z,0.80
2018-03-17T00:11:49.567Z,0.73
2018-03-17T00:14:17.055Z,0.90
2018-03-17T00:16:44.540Z,1.10
2018-03-17T00:19:12.059Z,1.10
2018-03-17T00:21:39.540Z,0.60
2018-03-17T00:24:07.013Z,0.63
2018-03-17T00:26:34.498Z,0.80
2018-03-17T00:29:01.992Z,0.90
2018-03-17T00:31:29.924Z,0.70
2018-03-17T00:33:57.570Z,0.77
2018-03-17T00:36:25.053Z,0.80
2018-03-17T00:38:52.537Z,1.00
2018-03-17T00:41:20.065Z,1.83
2018-03-17T00:43:47.777Z,1.73
2018-03-17T00:46:15.259Z,1.73
2018-03-17T00:48:42.790Z,1.70
2018-03-17T00:51:10.312Z,1.30
2018-03-17T00:53:38.163Z,1.60
2018-03-17T00:56:05.645Z,2.10
2018-03-17T00:58:33.122Z,1.73
2018-03-17T01:01:00.598Z,1.40
2018-03-17T01:03:28.107Z,1.67
2018-03-17T01:05:55.887Z,2.00
2018-03-17T01:08:23.717Z,2.20
2018-03-17T01:10:51.544Z,1.90
2018-03-17T01:13:19.032Z,1.40
2018-03-17T01:15:47.089Z,1.30
2018-03-17T01:18:14.595Z,1.50
2018-03-17T01:20:42.086Z,1.63
2018-03-17T01:23:09.610Z,2.10
2018-03-17T01:25:37.309Z,2.20
2018-03-17T01:28:04.792Z,2.50
2018-03-17T01:30:32.282Z,1.67
2018-03-17T01:33:00.227Z,1.90
2018-03-17T01:35:27.877Z,2.00
2018-03-17T01:37:55.372Z,1.87
2018-03-17T01:40:22.990Z,1.80
2018-03-17T01:42:50.558Z,1.77
2018-03-17T01:45:18.144Z,1.70
2018-03-17T01:47:45.799Z,2.00
2018-03-17T01:50:13.406Z,2.33
2018-03-17T01:52:41.062Z,2.13
2018-03-17T01:55:08.562Z,2.13
2018-03-17T01:57:36.059Z,2.80
2018-03-17T02:00:03.592Z,2.50
2018-03-17T02:02:31.112Z,2.80
2018-03-17T02:04:58.615Z,2.70
2018-03-17T02:07:26.389Z,2.90
2018-03-17T02:09:54.089Z,3.67
2018-03-17T02:12:21.566Z,2.77
2018-03-17T02:14:49.208Z,2.83
2018-03-17T02:17:17.007Z,2.70
2018-03-17T02:19:44.704Z,2.40
2018-03-17T02:22:12.576Z,2.50
2018-03-17T02:24:40.043Z,2.23
2018-03-17T02:27:07.532Z,2.23
2018-03-17T02:29:35.016Z,2.27
2018-03-17T02:32:02.517Z,2.20
2018-03-17T02:34:30.242Z,1.67
2018-03-17T02:36:57.721Z,1.80
2018-03-17T02:39:25.253Z,1.47
2018-03-17T02:41:52.743Z,1.40
2018-03-17T02:44:20.228Z,1.50
2018-03-17T02:46:47.706Z,1.70
2018-03-17T02:49:15.324Z,1.30
2018-03-17T02:51:42.880Z,1.40
2018-03-17T02:56:43.247Z,1.87
2018-03-17T02:59:10.726Z,1.90
2018-03-17T03:01:38.311Z,1.47
2018-03-17T03:04:06.156Z,1.70
2018-03-17T03:06:33.694Z,2.00
2018-03-17T03:09:01.198Z,2.07
2018-03-17T03:11:28.922Z,2.10
2018-03-17T03:13:56.430Z,2.27
2018-03-17T03:16:23.995Z,2.07
2018-03-17T03:18:51.481Z,2.00
2018-03-17T03:21:18.992Z,2.10
2018-03-17T03:23:46.527Z,2.33
2018-03-17T03:26:14.037Z,2.00
2018-03-17T03:28:41.760Z,2.10
2018-03-17T03:31:09.242Z,2.13
2018-03-17T03:33:36.721Z,2.10
2018-03-17T03:36:04.718Z,2.27
2018-03-17T03:38:32.254Z,2.40
2018-03-17T03:40:59.978Z,3.20
2018-03-17T03:43:27.514Z,2.77
2018-03-17T03:45:55.284Z,2.50
2018-03-17T03:48:22.986Z,2.50
2018-03-17T03:50:50.457Z,2.70
2018-03-17T03:53:18.048Z,2.87
2018-03-17T03:55:45.573Z,2.30
2018-03-17T03:58:13.205Z,2.20
2018-03-17T04:00:40.858Z,2.43
2018-03-17T04:03:08.464Z,2.17
2018-03-17T04:05:35.935Z,2.20
2018-03-17T04:08:03.433Z,2.00
2018-03-17T04:10:31.230Z,1.97
2018-03-17T04:12:58.730Z,2.27
2018-03-17T04:15:26.271Z,1.50
2018-03-17T04:17:53.842Z,1.60
2018-03-17T04:20:21.647Z,1.73
2018-03-17T04:22:49.542Z,1.73
2018-03-17T04:25:17.026Z,1.70
2018-03-17T04:27:44.850Z,1.60
2018-03-17T04:30:12.336Z,1.70
2018-03-17T04:32:40.114Z,1.70
2018-03-17T04:35:07.613Z,1.50
2018-03-17T04:37:35.277Z,1.73
2018-03-17T04:40:02.918Z,2.70
2018-03-17T04:42:30.573Z,1.70
2018-03-17T04:44:58.050Z,1.43
2018-03-17T04:47:25.686Z,1.20
2018-03-17T04:49:53.222Z,1.07
2018-03-17T04:52:20.746Z,1.23
2018-03-17T04:54:48.445Z,1.10
2018-03-17T04:57:15.912Z,1.00
2018-03-17T04:59:43.429Z,1.23
2018-03-17T05:02:10.917Z,1.10
2018-03-17T05:04:38.410Z,1.07
2018-03-17T05:07:06.125Z,1.00
2018-03-17T05:09:33.730Z,0.90
2018-03-17T05:12:01.580Z,1.00
2018-03-17T05:14:29.323Z,1.70
2018-03-17T05:16:56.799Z,1.40
2018-03-17T05:19:24.290Z,1.80
2018-03-17T05:21:51.794Z,1.70
2018-03-17T05:24:19.308Z,1.70
2018-03-17T05:26:46.786Z,1.80
2018-03-17T05:29:14.276Z,1.40
2018-03-17T05:31:42.219Z,1.20
2018-03-17T05:34:09.697Z,1.57
2018-03-17T05:36:37.202Z,1.50
2018-03-17T05:39:05.080Z,1.70
2018-03-17T05:41:32.680Z,1.97
2018-03-17T05:44:00.159Z,2.17
2018-03-17T05:46:27.705Z,2.20
2018-03-17T05:48:55.183Z,2.40
2018-03-17T05:51:22.669Z,2.47
2018-03-17T05:53:50.169Z,2.67
2018-03-17T05:56:17.678Z,2.57
2018-03-17T05:58:45.163Z,2.03
2018-03-17T06:01:12.942Z,2.73
2018-03-17T06:03:40.734Z,2.40
2018-03-17T06:06:08.438Z,2.83
2018-03-17T06:08:35.933Z,2.50
2018-03-17T06:11:03.551Z,2.43
2018-03-17T06:13:31.203Z,2.17
2018-03-17T06:15:59.055Z,2.00
2018-03-17T06:18:26.605Z,1.87
2018-03-17T06:20:54.357Z,1.70
2018-03-17T06:23:21.853Z,1.13
2018-03-17T06:25:49.615Z,1.53
2018-03-17T06:28:17.110Z,1.40
2018-03-17T06:30:44.773Z,2.80
2018-03-17T06:33:12.573Z,1.57
2018-03-17T06:35:40.453Z,1.80
2018-03-17T06:38:08.078Z,1.47
2018-03-17T06:40:35.773Z,1.40
2018-03-17T06:43:03.261Z,1.50
2018-03-17T06:45:30.891Z,1.07
2018-03-17T06:47:58.386Z,1.33
2018-03-17T06:50:25.881Z,1.03
2018-03-17T06:52:53.363Z,1.03
2018-03-17T06:55:20.838Z,1.30
2018-03-17T06:57:48.309Z,1.00
2018-03-17T07:00:15.789Z,1.60
2018-03-17T07:02:43.283Z,1.10
2018-03-17T07:05:10.808Z,1.50
2018-03-17T07:07:38.341Z,0.90
2018-03-17T07:10:05.918Z,0.97
2018-03-17T07:12:33.497Z,1.17
2018-03-17T07:15:01.308Z,1.20
2018-03-17T07:17:29.154Z,1.40
2018-03-17T07:19:56.858Z,1.20
2018-03-17T07:22:24.338Z,0.93
2018-03-17T07:24:51.850Z,1.00
2018-03-17T07:27:19.324Z,1.30
2018-03-17T07:29:46.810Z,1.97
2018-03-17T07:32:14.294Z,1.10
2018-03-17T07:34:41.766Z,0.93
2018-03-17T07:37:09.405Z,1.10
2018-03-17T07:39:37.725Z,1.40
2018-03-17T07:42:05.744Z,2.03
2018-03-17T07:44:33.215Z,1.03
2018-03-17T07:47:00.850Z,1.27
2018-03-17T07:49:28.367Z,1.30
2018-03-17T07:51:56.111Z,1.57
2018-03-17T07:54:23.595Z,1.50
2018-03-17T07:56:51.221Z,1.10
2018-03-17T07:59:18.711Z,1.13
2018-03-17T08:01:46.378Z,1.30
2018-03-17T08:04:13.850Z,1.43
2018-03-17T08:06:41.513Z,1.40
2018-03-17T08:09:09.145Z,1.30
2018-03-17T08:11:36.979Z,1.30
2018-03-17T08:14:04.477Z,1.40
2018-03-17T08:16:31.960Z,1.30
2018-03-17T08:18:59.755Z,1.50
2018-03-17T08:21:27.414Z,1.30
2018-03-17T08:23:54.913Z,1.13
2018-03-17T08:26:22.392Z,1.40
2018-03-17T08:28:49.891Z,1.40
2018-03-17T08:31:17.388Z,1.50
2018-03-17T08:33:44.887Z,2.40
2018-03-17T08:36:12.497Z,1.53
2018-03-17T08:38:40.543Z,2.00
2018-03-17T08:41:08.786Z,1.37
2018-03-17T08:43:36.884Z,1.30
2018-03-17T08:46:04.387Z,1.43
2018-03-17T08:48:31.873Z,1.20
2018-03-17T08:50:59.377Z,1.40
2018-03-17T08:53:26.863Z,1.40
2018-03-17T08:55:54.345Z,2.30
2018-03-17T08:58:21.831Z,1.30
2018-03-17T09:00:49.330Z,1.50
2018-03-17T09:03:16.817Z,1.60
2018-03-17T09:05:44.294Z,1.80
2018-03-17T09:08:12.188Z,1.73
2018-03-17T09:10:39.895Z,1.37
2018-03-17T09:13:07.693Z,1.47
2018-03-17T09:15:35.985Z,1.63
2018-03-17T09:18:03.796Z,1.43
2018-03-17T09:20:31.310Z,1.80
2018-03-17T09:22:58.794Z,1.30
2018-03-17T09:25:26.287Z,1.43
2018-03-17T09:27:53.718Z,1.77
2018-03-17T09:30:21.220Z,2.00
2018-03-17T09:32:48.707Z,2.47
2018-03-17T09:35:16.226Z,2.10
2018-03-17T09:37:43.708Z,1.40
2018-03-17T09:40:11.486Z,1.57
2018-03-17T09:42:38.982Z,1.83
2018-03-17T09:45:06.509Z,1.60
2018-03-17T09:47:34.083Z,1.93
2018-03-17T09:50:01.585Z,1.57
2018-03-17T09:52:29.125Z,2.00
2018-03-17T09:54:56.700Z,1.80
2018-03-17T09:57:24.194Z,1.80
2018-03-17T09:59:51.676Z,1.70
2018-03-17T10:02:19.157Z,2.20
2018-03-17T10:04:46.654Z,3.43
2018-03-17T10:07:14.148Z,2.17
2018-03-17T10:09:41.650Z,2.20
2018-03-17T10:12:09.409Z,2.03
2018-03-17T10:14:36.898Z,1.67
2018-03-17T10:17:04.565Z,2.30
2018-03-17T10:19:32.763Z,1.80
2018-03-17T10:22:00.257Z,1.70
2018-03-17T10:24:27.892Z,1.80
2018-03-17T10:26:55.970Z,1.60
2018-03-17T10:29:23.452Z,1.73
2018-03-17T10:31:50.954Z,1.67
2018-03-17T10:34:18.446Z,1.63
2018-03-17T10:36:45.983Z,1.80
2018-03-17T10:39:13.474Z,1.60
2018-03-17T10:41:40.989Z,1.60
2018-03-17T10:44:08.544Z,1.43
2018-03-17T10:46:36.072Z,1.67
2018-03-17T10:49:03.589Z,1.57
2018-03-17T10:51:31.715Z,1.50
2018-03-17T10:53:59.238Z,1.70
2018-03-17T10:56:26.744Z,1.70
2018-03-17T10:58:54.379Z,1.40
2018-03-17T11:01:22.136Z,1.37
2018-03-17T11:03:49.770Z,1.23
2018-03-17T11:06:17.464Z,1.30
2018-03-17T11:08:45.092Z,1.20
2018-03-17T11:11:12.772Z,1.60
2018-03-17T11:13:40.550Z,1.03
2018-03-17T11:16:08.055Z,1.40
2018-03-17T11:18:36.002Z,1.17
2018-03-17T11:21:03.510Z,1.10
2018-03-17T11:23:31.106Z,1.33
2018-03-17T11:25:59.024Z,1.53
2018-03-17T11:28:26.549Z,1.30
2018-03-17T11:30:54.171Z,1.03
2018-03-17T11:33:21.691Z,1.20
2018-03-17T11:35:49.237Z,1.20
2018-03-17T11:38:17.169Z,1.17
2018-03-17T11:40:45.015Z,0.80
2018-03-17T11:43:12.523Z,1.83
2018-03-17T11:45:40.015Z,1.13
2018-03-17T11:48:07.748Z,1.23
2018-03-17T11:50:35.351Z,1.63
2018-03-17T11:53:02.925Z,1.13
2018-03-17T11:55:30.475Z,1.10
2018-03-17T11:57:58.004Z,1.20
2018-03-17T12:00:25.532Z,1.20
2018-03-17T12:02:53.147Z,0.80
2018-03-17T12:05:20.707Z,1.20
2018-03-17T12:07:48.230Z,1.00
2018-03-17T12:10:15.784Z,1.10
2018-03-17T12:12:43.337Z,1.07
2018-03-17T12:15:10.939Z,1.13
2018-03-17T12:17:38.542Z,0.80
2018-03-17T12:20:06.160Z,0.70
2018-03-17T12:22:33.967Z,1.10
2018-03-17T12:25:02.117Z,0.83
2018-03-17T12:27:30.336Z,1.00
2018-03-17T12:29:58.351Z,0.90
2018-03-17T12:32:26.393Z,1.00
2018-03-17T12:34:54.459Z,1.07
2018-03-17T12:37:22.539Z,0.80
2018-03-17T12:39:50.784Z,0.87
2018-03-17T12:42:18.768Z,1.60
2018-03-17T12:44:46.875Z,1.00
2018-03-17T12:47:15.044Z,1.20
2018-03-17T12:49:43.165Z,1.40
2018-03-17T12:52:11.411Z,1.30
2018-03-17T12:54:39.859Z,1.50
2018-03-17T12:57:07.732Z,1.23
2018-03-17T12:59:35.713Z,1.70
2018-03-17T13:02:04.387Z,1.93
2018-03-17T13:04:33.218Z,1.30
2018-03-17T13:07:02.261Z,1.40
2018-03-17T13:09:31.084Z,1.57
2018-03-17T13:11:59.917Z,1.50
2018-03-17T13:14:28.940Z,1.10
2018-03-17T13:16:57.781Z,1.20
2018-03-17T13:19:32.704Z,1.80
2018-03-17T13:22:01.349Z,1.40
2018-03-17T13:24:30.179Z,1.53
2018-03-17T13:27:04.914Z,1.10
2018-03-17T13:29:33.742Z,1.00
2018-03-17T13:32:02.567Z,1.13
2018-03-17T13:34:31.012Z,3.47
2018-03-17T13:37:05.549Z,1.73
2018-03-17T13:39:34.574Z,1.30
2018-03-17T13:42:03.415Z,1.10
2018-03-17T13:44:32.247Z,0.70
2018-03-17T13:47:00.877Z,0.90
2018-03-17T13:49:30.007Z,1.00
2018-03-17T13:51:58.743Z,1.30
2018-03-17T13:54:27.575Z,1.20
2018-03-17T13:56:56.408Z,1.20
2018-03-17T13:59:25.435Z,1.10
2018-03-17T14:01:53.983Z,1.30
2018-03-17T14:04:22.915Z,0.90
2018-03-17T14:06:51.450Z,1.10
2018-03-17T14:09:20.186Z,1.40
2018-03-17T14:11:49.011Z,1.00
2018-03-17T14:14:18.046Z,1.20
2018-03-17T14:16:47.071Z,1.10
2018-03-17T14:19:15.910Z,1.43
2018-03-17T14:21:44.932Z,1.70
2018-03-17T14:24:13.768Z,0.80
2018-03-17T14:26:42.605Z,1.30
2018-03-17T14:29:11.238Z,1.07
2018-03-17T14:31:40.076Z,1.90
2018-03-17T14:34:08.612Z,1.53
2018-03-17T14:36:37.344Z,1.27
2018-03-17T14:39:06.186Z,1.43
2018-03-17T14:41:35.013Z,1.10
2018-03-17T14:44:04.038Z,1.10
2018-03-17T14:46:31.878Z,1.13
2018-03-17T14:49:00.258Z,1.47
2018-03-17T14:51:28.967Z,1.47
2018-03-17T14:53:57.798Z,1.50
2018-03-17T14:56:26.638Z,1.40
2018-03-17T14:58:55.660Z,1.40
2018-03-17T15:01:24.504Z,1.33
2018-03-17T15:03:53.522Z,4.03
2018-03-17T15:06:22.359Z,1.47
2018-03-17T15:08:50.999Z,1.50
2018-03-17T15:11:19.537Z,1.13
2018-03-17T15:13:47.981Z,1.33
2018-03-17T15:16:16.714Z,1.30
2018-03-17T15:18:45.549Z,1.10
2018-03-17T15:21:14.376Z,1.77
2018-03-17T15:23:42.924Z,1.30
2018-03-17T15:26:11.649Z,1.07
2018-03-17T15:28:40.194Z,0.97
2018-03-17T15:31:08.922Z,1.20
2018-03-17T15:33:36.741Z,1.53
2018-03-17T15:36:04.570Z,1.10
2018-03-17T15:38:33.262Z,1.53
2018-03-17T15:41:02.299Z,1.20
2018-03-17T15:43:31.117Z,1.10
2018-03-17T15:46:00.147Z,1.30
2018-03-17T15:48:28.788Z,1.23
2018-03-17T15:50:57.623Z,1.00
2018-03-17T15:53:26.646Z,1.13
2018-03-17T15:55:55.483Z,1.20
2018-03-17T15:58:24.516Z,1.20
2018-03-17T16:00:53.736Z,1.13
2018-03-17T16:03:22.284Z,1.10
2018-03-17T16:05:51.014Z,1.37
2018-03-17T16:08:19.554Z,1.17
2018-03-17T16:10:48.292Z,1.17
2018-03-17T16:13:18.166Z,1.43
2018-03-17T16:15:46.744Z,1.50
2018-03-17T16:18:15.280Z,1.30
2018-03-17T16:20:44.013Z,1.37
2018-03-17T16:23:13.037Z,1.17
2018-03-17T16:25:41.907Z,1.50
2018-03-17T16:28:09.758Z,1.37
2018-03-17T16:30:37.582Z,1.77
2018-03-17T16:33:05.945Z,1.40
2018-03-17T16:35:33.771Z,1.90
2018-03-17T16:38:02.695Z,1.57
2018-03-17T16:40:31.240Z,1.97
2018-03-17T16:42:59.974Z,1.80
2018-03-17T16:45:28.801Z,2.03
2018-03-17T16:47:57.643Z,1.60
2018-03-17T16:50:26.283Z,1.80
2018-03-17T16:52:55.105Z,1.73
2018-03-17T16:55:23.938Z,1.47
2018-03-17T16:57:52.776Z,1.77
2018-03-17T17:00:21.610Z,1.70
2018-03-17T17:02:50.437Z,1.40
2018-03-17T17:05:19.380Z,1.40
2018-03-17T17:07:48.115Z,1.20
2018-03-17T17:10:17.132Z,1.40
2018-03-17T17:12:45.964Z,1.20
2018-03-17T17:15:14.995Z,1.60
2018-03-17T17:17:44.223Z,1.23
2018-03-17T17:20:12.770Z,1.17
2018-03-17T17:22:41.692Z,1.20
2018-03-17T17:25:10.333Z,1.40
2018-03-17T17:27:39.359Z,1.43
2018-03-17T17:30:08.003Z,1.50
2018-03-17T17:32:36.637Z,1.47
2018-03-17T17:35:04.491Z,1.67
2018-03-17T17:37:32.319Z,1.70
2018-03-17T17:40:01.366Z,1.60
2018-03-17T17:42:30.204Z,2.80
2018-03-17T17:44:58.283Z,2.73
2018-03-17T17:47:26.886Z,2.10
2018-03-17T17:49:55.714Z,2.30
2018-03-17T17:52:24.741Z,2.40
2018-03-17T17:54:53.770Z,2.33
2018-03-17T17:57:22.616Z,2.00
2018-03-17T17:59:51.632Z,2.30
2018-03-17T18:02:20.663Z,2.57
2018-03-17T18:04:49.502Z,2.30
2018-03-17T18:07:18.339Z,2.57
2018-03-17T18:09:47.162Z,2.63
2018-03-17T18:12:16.000Z,2.60
2018-03-17T18:14:44.833Z,2.50
2018-03-17T18:17:13.665Z,2.17
2018-03-17T18:19:42.691Z,2.20
2018-03-17T18:22:12.708Z,2.40
2018-03-17T18:24:41.453Z,2.27
2018-03-17T18:27:10.370Z,2.40
2018-03-17T18:29:39.006Z,2.87
2018-03-17T18:32:06.846Z,2.87
2018-03-17T18:34:35.694Z,2.90
2018-03-17T18:37:04.719Z,2.90
2018-03-17T18:39:33.364Z,3.10
2018-03-17T18:42:02.189Z,2.50
2018-03-17T18:44:31.218Z,2.57
2018-03-17T18:46:59.857Z,2.37
2018-03-17T18:49:28.697Z,2.57
2018-03-17T18:51:57.129Z,2.80
2018-03-17T18:54:26.558Z,2.60
2018-03-17T18:56:55.392Z,2.80
2018-03-17T18:59:24.414Z,2.37
2018-03-17T19:01:53.250Z,3.23
2018-03-17T19:04:22.083Z,3.10
2018-03-17T19:06:50.918Z,3.20
2018-03-17T19:09:18.748Z,3.27
2018-03-17T19:11:46.590Z,3.43
2018-03-17T19:14:14.432Z,4.00
2018-03-17T19:16:43.308Z,4.30
2018-03-17T19:19:12.136Z,4.13
2018-03-17T19:21:41.161Z,3.90
2018-03-17T19:24:10.003Z,4.03
2018-03-17T19:26:37.881Z,3.30
2018-03-17T19:29:06.873Z,2.63
2018-03-17T19:31:35.713Z,2.70
2018-03-17T19:34:04.933Z,3.10
2018-03-17T19:36:33.768Z,3.60
2018-03-17T19:39:02.605Z,4.07
2018-03-17T19:41:31.337Z,3.80
2018-03-17T19:44:00.079Z,4.50
2018-03-17T19:46:28.902Z,3.80
2018-03-17T19:48:57.751Z,3.27
2018-03-17T19:51:26.574Z,3.30
2018-03-17T19:53:55.601Z,2.67
2018-03-17T19:56:24.145Z,2.83
2018-03-17T19:58:52.778Z,3.17
2018-03-17T20:01:21.510Z,2.63
2018-03-17T20:03:50.154Z,2.73
2018-03-17T20:06:19.188Z,2.80
2018-03-17T20:08:48.205Z,2.33
2018-03-17T20:11:17.045Z,2.47
2018-03-17T20:13:45.878Z,2.47
2018-03-17T20:16:14.901Z,2.80
2018-03-17T20:18:43.742Z,2.57
2018-03-17T20:21:11.589Z,3.00
2018-03-17T20:23:39.409Z,2.03
2018-03-17T20:26:07.236Z,2.60
2018-03-17T20:28:35.063Z,2.67
2018-03-17T20:31:04.173Z,2.90
2018-03-17T20:33:33.193Z,2.73
2018-03-17T20:36:02.043Z,2.50
2018-03-17T20:38:30.862Z,2.67
2018-03-17T20:40:59.888Z,3.20
2018-03-17T20:43:28.731Z,5.23
2018-03-17T20:45:57.270Z,4.77
2018-03-17T20:48:26.192Z,3.30
2018-03-17T20:50:54.827Z,2.97
2018-03-17T20:53:23.669Z,3.00
2018-03-17T20:55:52.887Z,2.60
2018-03-17T20:58:21.730Z,2.47
2018-03-17T21:00:50.755Z,2.90
2018-03-17T21:03:19.387Z,2.03
2018-03-17T21:05:48.415Z,2.40
2018-03-17T21:08:17.252Z,2.77
2018-03-17T21:10:45.895Z,2.07
2018-03-17T21:13:14.726Z,2.43
2018-03-17T21:15:43.556Z,9.00
2018-03-17T21:18:12.387Z,3.53
2018-03-17T21:20:41.226Z,3.33
2018-03-17T21:23:10.068Z,3.07
2018-03-17T21:25:38.702Z,3.60
2018-03-17T21:28:07.537Z,3.40
2018-03-17T21:30:36.551Z,3.20
2018-03-17T21:33:05.393Z,2.80
2018-03-17T21:35:33.931Z,3.57
2018-03-17T21:38:02.403Z,3.43
2018-03-17T21:40:30.806Z,4.17
2018-03-17T21:42:59.734Z,4.13
2018-03-17T21:45:28.763Z,3.97
2018-03-17T21:47:57.598Z,4.23
2018-03-17T21:50:26.433Z,3.80
2018-03-17T21:52:55.460Z,3.83
2018-03-17T21:55:23.893Z,4.73
2018-03-17T21:57:52.744Z,4.47
2018-03-17T22:00:20.931Z,6.40
2018-03-17T22:02:49.610Z,4.30
2018-03-17T22:05:18.258Z,4.70
2018-03-17T22:07:46.834Z,4.83
2018-03-17T22:10:15.530Z,5.03
2018-03-17T22:12:44.551Z,5.10
2018-03-17T22:15:13.627Z,4.53
2018-03-17T22:17:42.415Z,5.20
2018-03-17T22:20:11.090Z,5.37
2018-03-17T22:22:39.890Z,5.43
2018-03-17T22:25:08.532Z,6.97
2018-03-17T22:27:37.266Z,4.20
2018-03-17T22:30:06.187Z,4.67
2018-03-17T22:32:35.020Z,4.20
2018-03-17T22:35:03.853Z,4.37
2018-03-17T22:37:32.394Z,4.57
2018-03-17T22:40:01.139Z,4.30
2018-03-17T22:42:29.959Z,4.60
2018-03-17T22:44:58.596Z,4.60
2018-03-17T22:47:26.840Z,5.73
2018-03-17T22:49:54.852Z,4.37
2018-03-17T22:52:22.741Z,4.80
2018-03-17T22:54:50.586Z,4.97
2018-03-17T22:57:18.436Z,5.17
2018-03-17T22:59:46.005Z,5.20
2018-03-17T23:02:13.495Z,6.00
2018-03-17T23:04:41.250Z,5.67
2018-03-17T23:07:08.901Z,5.97
2018-03-17T23:09:36.465Z,5.97
2018-03-17T23:12:04.208Z,5.77
2018-03-17T23:14:31.864Z,6.57
2018-03-17T23:16:59.375Z,6.27
2018-03-17T23:19:27.133Z,6.47
2018-03-17T23:21:54.663Z,6.27
2018-03-17T23:24:22.278Z,5.93
2018-03-17T23:26:49.893Z,6.30
2018-03-17T23:29:17.586Z,6.80
2018-03-17T23:31:45.145Z,6.37
2018-03-17T23:34:12.893Z,6.63
2018-03-17T23:36:40.698Z,7.20
2018-03-17T23:39:08.200Z,6.77
2018-03-17T23:41:35.722Z,7.23
2018-03-17T23:44:03.323Z,7.00
2018-03-17T23:46:30.860Z,7.00
2018-03-17T23:48:58.393Z,7.20
2018-03-17T23:51:25.949Z,6.80
2018-03-17T23:53:53.520Z,6.53
2018-03-17T23:56:21.331Z,6.93
2018-03-17T23:58:49.230Z,6.43
